Time;durP1;ratioP1;P1;durP2;ratioP2;P2;SDS_P1;SDS_P2;PMS_P1;PMS_P2;Temp;Humidity;BMP_temperature;BMP_pressure;BME280_temperature;BME280_humidity;BME280_pressure;Samples;Min_cycle;Max_cycle;Signal;HPM_P1;HPM_P2
2022/04/22 00:01:32;;;;;;;;;;;;;;;25.97;34.36;92736.47;4990542;28;9066;-60
2022/04/22 00:04:07;;;;;;;;;;;;;;;25.97;34.86;92728.22;4987351;28;9096;-60
2022/04/22 00:06:33;;;;;;;;;;;;;;;25.95;35.02;92724.53;4983781;28;7346;-60
2022/04/22 00:09:00;;;;;;;;;;;;;;;25.94;34.94;92723.84;4975117;28;8816;-60
2022/04/22 00:11:30;;;;;;;;;;;;;;;25.94;34.40;92715.56;5024169;28;6969;-60
2022/04/22 00:14:01;;;;;;;;;;;;;;;25.93;34.74;92708.56;5034668;28;9119;-60
2022/04/22 00:16:56;;;;;;;;;;;;;;;25.93;34.16;92710.59;5034153;28;9719;-60
2022/04/22 00:19:22;;;;;;;;;;;;;;;25.91;34.75;92702.16;5045534;28;8331;-60
2022/04/22 00:21:58;;;;;;;;;;;;;;;25.89;34.27;92702.72;5036303;28;7072;-60
2022/04/22 00:24:24;;;;;;;;;;;;;;;25.90;34.19;92703.44;5032136;28;7137;-60
2022/04/22 00:27:10;;;;;;;;;;;;;;;25.89;34.67;92710.22;5046503;28;7070;-60
2022/04/22 00:29:46;;;;;;;;;;;;;;;25.87;34.17;92705.28;5031906;28;7560;-60
2022/04/22 00:32:22;;;;;;;;;;;;;;;25.87;34.40;92710.06;5043759;28;9353;-60
2022/04/22 00:34:53;;;;;;;;;;;;;;;25.86;33.99;92701.06;5049443;28;7894;-60
2022/04/22 00:37:20;;;;;;;;;;;;;;;25.86;34.21;92703.81;5037494;28;8007;-60
2022/04/22 00:39:48;;;;;;;;;;;;;;;25.85;34.45;92702.34;5043163;28;8830;-60
2022/04/22 00:42:40;;;;;;;;;;;;;;;25.86;34.82;92705.84;5043968;28;9403;-60
2022/04/22 00:45:20;;;;;;;;;;;;;;;25.81;34.13;92699.25;4946940;28;7268;-60
2022/04/22 00:47:48;;;;;;;;;;;;;;;25.82;34.74;92703.44;4973513;28;7200;-60
2022/04/22 00:50:14;;;;;;;;;;;;;;;25.82;34.01;92708.22;4942297;28;9060;-60
2022/04/22 00:52:43;;;;;;;;;;;;;;;25.81;34.08;92699.25;4947104;28;7283;-60
2022/04/22 00:55:13;;;;;;;;;;;;;;;25.81;34.23;92701.25;4939061;28;8851;-60
2022/04/22 00:57:43;;;;;;;;;;;;;;;25.80;34.56;92692.25;4955464;28;9185;-60
2022/04/22 01:00:39;;;;;;;;;;;;;;;25.79;34.45;92690.78;4964921;28;9005;-60
2022/04/22 01:03:16;;;;;;;;;;;;;;;25.74;34.14;92683.44;4961568;28;9584;-60
2022/04/22 01:11:57;;;;;;;;;;;;;;;25.72;34.22;92675.00;4965294;28;7855;-60
2022/04/22 01:14:32;;;;;;;;;;;;;;;25.73;34.68;92678.50;4957071;28;9115;-60
2022/04/22 01:17:00;;;;;;;;;;;;;;;25.72;34.65;92672.25;4961794;28;7092;-60
2022/04/22 01:19:28;;;;;;;;;;;;;;;25.73;34.73;92668.19;4955417;28;7246;-60
2022/04/22 01:21:56;;;;;;;;;;;;;;;25.73;34.30;92673.00;4984019;28;8780;-60
2022/04/22 01:24:21;;;;;;;;;;;;;;;25.70;34.63;92655.56;5031982;28;9165;-60
2022/04/22 01:26:50;;;;;;;;;;;;;;;25.69;34.03;92656.09;5040568;28;9217;-60
2022/04/22 01:29:16;;;;;;;;;;;;;;;25.71;34.29;92661.81;5029768;28;7224;-60
2022/04/22 01:32:09;;;;;;;;;;;;;;;25.70;34.81;92658.31;5014922;28;9146;-60
2022/04/22 01:34:47;;;;;;;;;;;;;;;25.70;33.84;92650.06;4945598;28;7132;-60
2022/04/22 01:37:25;;;;;;;;;;;;;;;25.67;34.40;92642.16;4968265;28;9058;-60
2022/04/22 01:39:51;;;;;;;;;;;;;;;25.69;34.55;92651.31;4955648;28;7366;-60
2022/04/22 01:42:27;;;;;;;;;;;;;;;25.69;34.44;92648.56;4949432;28;9548;-60
2022/04/22 01:44:56;;;;;;;;;;;;;;;25.66;33.92;92644.19;4953307;28;8595;-60
2022/04/22 01:47:22;;;;;;;;;;;;;;;25.69;34.58;92650.59;4957702;28;7130;-60
2022/04/22 01:49:48;;;;;;;;;;;;;;;25.69;34.01;92642.31;4963597;28;9029;-60
2022/04/22 01:52:14;;;;;;;;;;;;;;;25.68;34.64;92646.38;4951583;28;8622;-60
2022/04/22 01:54:42;;;;;;;;;;;;;;;25.68;34.78;92638.84;4956186;28;9381;-60
2022/04/22 01:57:08;;;;;;;;;;;;;;;25.67;34.80;92648.38;4955911;28;7161;-59
2022/04/22 01:59:36;;;;;;;;;;;;;;;25.67;34.22;92640.13;4955173;28;7447;-60
2022/04/22 02:02:15;;;;;;;;;;;;;;;25.65;34.83;92639.94;4968837;28;6994;-59
2022/04/22 02:04:50;;;;;;;;;;;;;;;25.62;34.42;92638.28;4952752;28;9021;-59
2022/04/22 02:07:25;;;;;;;;;;;;;;;25.61;34.21;92644.34;4955351;28;8725;-60
2022/04/22 02:10:06;;;;;;;;;;;;;;;25.62;33.94;92641.03;4951415;28;7179;-60
2022/04/22 02:12:38;;;;;;;;;;;;;;;25.65;33.46;92642.69;5037526;28;9586;-60
2022/04/22 02:15:05;;;;;;;;;;;;;;;25.62;33.46;92638.28;5040271;28;9316;-60
2022/04/22 02:17:34;;;;;;;;;;;;;;;25.64;33.69;92649.50;5048172;28;7236;-60
2022/04/22 02:20:10;;;;;;;;;;;;;;;25.62;33.65;92640.34;5047713;28;9012;-60
2022/04/22 02:22:43;;;;;;;;;;;;;;;25.62;33.98;92641.03;5032724;28;8794;-60
2022/04/22 02:25:25;;;;;;;;;;;;;;;25.60;33.80;92645.66;5043560;28;9510;-60
2022/04/22 02:30:54;;;;;;;;;;;;;;;25.58;33.88;92635.19;4999554;28;7251;-60
2022/04/22 02:33:35;;;;;;;;;;;;;;;25.58;33.57;92628.97;5006170;28;8380;-60
2022/04/22 02:36:03;;;;;;;;;;;;;;;25.58;34.18;92628.97;4989543;28;7399;-60
2022/04/22 02:38:30;;;;;;;;;;;;;;;25.56;34.26;92620.50;4982495;28;9049;-60
2022/04/22 02:46:28;;;;;;;;;;;;;;;25.54;33.82;92615.56;5000398;28;7096;-60
2022/04/22 02:48:59;;;;;;;;;;;;;;;25.55;33.71;92619.03;4984153;28;7170;-60
2022/04/22 02:51:28;;;;;;;;;;;;;;;25.51;33.92;92616.69;4982958;28;9294;-60
2022/04/22 02:53:54;;;;;;;;;;;;;;;25.51;34.24;92616.69;4982471;28;7222;-60
2022/04/22 02:56:22;;;;;;;;;;;;;;;25.51;33.67;92613.91;4987779;28;9462;-59
2022/04/22 02:58:49;;;;;;;;;;;;;;;25.52;33.61;92617.38;5004150;28;8747;-60
2022/04/22 03:01:15;;;;;;;;;;;;;;;25.51;34.10;92610.44;5006157;28;6987;-60
2022/04/22 03:03:45;;;;;;;;;;;;;;;25.51;33.52;92613.91;4979850;28;7750;-60
2022/04/22 03:06:10;;;;;;;;;;;;;;;25.49;34.44;92605.47;4997172;28;7264;-60
2022/04/22 03:08:37;;;;;;;;;;;;;;;25.50;33.82;92617.94;5044941;28;7298;-60
2022/04/22 03:11:03;;;;;;;;;;;;;;;25.49;33.78;92613.00;5042706;28;9122;-60
2022/04/22 03:13:30;;;;;;;;;;;;;;;25.50;33.89;92619.97;5033529;28;9586;-59
2022/04/22 03:15:59;;;;;;;;;;;;;;;25.48;33.75;92615.00;5042899;28;9382;-60
2022/04/22 03:18:27;;;;;;;;;;;;;;;25.47;34.03;92610.78;5028804;28;7231;-60
2022/04/22 03:20:55;;;;;;;;;;;;;;;25.46;33.86;92612.09;5033514;28;9178;-60
2022/04/22 03:23:28;;;;;;;;;;;;;;;25.46;33.26;92606.56;5056740;28;9145;-60
2022/04/22 03:25:58;;;;;;;;;;;;;;;25.46;33.72;92608.59;5050241;28;7930;-60
2022/04/22 03:28:26;;;;;;;;;;;;;;;25.46;33.57;92611.34;5033282;28;9207;-59
2022/04/22 03:31:12;;;;;;;;;;;;;;;25.43;34.13;92605.66;5031498;28;9053;-59
2022/04/22 03:33:51;;;;;;;;;;;;;;;25.42;34.03;92612.44;5040198;28;7618;-60
2022/04/22 03:36:32;;;;;;;;;;;;;;;25.40;33.86;92611.53;5039100;28;9261;-60
2022/04/22 03:39:15;;;;;;;;;;;;;;;25.39;34.08;92619.03;5032035;28;8747;-60
2022/04/22 03:41:41;;;;;;;;;;;;;;;25.38;33.73;92614.09;5050295;28;7247;-60
2022/04/22 03:44:10;;;;;;;;;;;;;;;25.36;33.92;92613.88;5030854;28;9157;-60
2022/04/22 03:46:37;;;;;;;;;;;;;;;25.40;33.55;92609.47;5035369;28;9364;-60
2022/04/22 03:49:04;;;;;;;;;;;;;;;25.39;33.86;92613.53;5036829;28;9080;-60
2022/04/22 03:51:31;;;;;;;;;;;;;;;25.39;33.76;92613.53;5037933;28;9428;-60
2022/04/22 03:54:00;;;;;;;;;;;;;;;25.40;34.34;92619.78;5030237;28;9164;-60
2022/04/22 03:59:14;;;;;;;;;;;;;;;25.37;33.88;92609.84;5029283;28;8777;-60
2022/04/22 04:01:40;;;;;;;;;;;;;;;25.37;34.08;92612.59;5043079;28;6987;-59
2022/04/22 04:04:10;;;;;;;;;;;;;;;25.36;33.45;92609.13;5046274;28;8700;-60
2022/04/22 04:06:50;;;;;;;;;;;;;;;25.36;34.08;92613.88;5049484;28;8891;-60
2022/04/22 04:17:58;;;;;;;;;;;;;;;25.33;33.84;92615.00;5039746;28;9057;-60
2022/04/22 04:23:17;;;;;;;;;;;;;;;25.31;33.88;92612.06;5039049;28;7280;-60
2022/04/22 04:25:59;;;;;;;;;;;;;;;25.31;33.70;92612.06;5048099;28;7002;-59
2022/04/22 04:28:33;;;;;;;;;;;;;;;25.30;33.91;92619.59;5062273;28;7239;-60
2022/04/22 04:31:04;;;;;;;;;;;;;;;25.30;33.83;92621.59;5037043;28;7095;-60
2022/04/22 04:33:33;;;;;;;;;;;;;;;25.28;34.51;92616.66;5035858;28;7261;-60
2022/04/22 04:36:12;;;;;;;;;;;;;;;25.30;33.93;92624.34;5046986;28;7644;-59
2022/04/22 04:38:40;;;;;;;;;;;;;;;25.31;33.64;92629.31;5039840;28;7142;-60
2022/04/22 04:41:15;;;;;;;;;;;;;;;25.32;34.38;92632.78;5048553;28;7256;-60
2022/04/22 04:43:42;;;;;;;;;;;;;;;25.30;34.20;92627.84;5058434;28;7279;-59
2022/04/22 04:46:10;;;;;;;;;;;;;;;25.29;34.05;92625.66;5040164;28;8984;-60
2022/04/22 04:48:39;;;;;;;;;;;;;;;25.30;33.79;92627.09;5042283;28;7217;-59
2022/04/22 04:51:07;;;;;;;;;;;;;;;25.27;33.96;92626.19;5048333;28;7251;-60
2022/04/22 04:53:33;;;;;;;;;;;;;;;25.27;33.66;92623.44;5037051;28;7194;-60
2022/04/22 04:56:00;;;;;;;;;;;;;;;25.27;33.64;92628.22;5048661;28;9154;-59
2022/04/22 04:58:29;;;;;;;;;;;;;;;25.25;33.99;92630.78;5038519;28;7296;-60
2022/04/22 05:00:57;;;;;;;;;;;;;;;25.27;33.69;92633.72;5037400;28;7304;-60
2022/04/22 05:03:23;;;;;;;;;;;;;;;25.25;33.01;92631.50;5040251;28;8879;-60
2022/04/22 05:05:49;;;;;;;;;;;;;;;25.25;32.88;92639.03;5038438;28;8343;-60
2022/04/22 05:08:15;;;;;;;;;;;;;;;25.24;32.76;92630.03;5051008;28;9071;-60
2022/04/22 05:11:11;;;;;;;;;;;;;;;25.24;33.49;92634.81;5043935;28;7054;-60
2022/04/22 05:13:49;;;;;;;;;;;;;;;25.22;33.42;92640.13;4992439;28;7543;-60
2022/04/22 05:16:16;;;;;;;;;;;;;;;25.22;32.93;92640.13;5008099;28;7176;-60
2022/04/22 05:18:50;;;;;;;;;;;;;;;25.20;32.93;92643.44;4984713;28;9081;-60
2022/04/22 05:21:17;;;;;;;;;;;;;;;25.21;32.78;92641.41;4984119;28;7062;-61
2022/04/22 05:24:13;;;;;;;;;;;;;;;25.19;32.48;92635.72;4992706;28;7248;-60
2022/04/22 05:26:53;;;;;;;;;;;;;;;25.16;33.56;92639.59;4912632;29;9358;-60
2022/04/22 05:35:00;;;;;;;;;;;;;;;25.19;33.03;92630.22;4931970;29;6982;-61
2022/04/22 05:37:47;;;;;;;;;;;;;;;25.19;32.98;92635.72;4916430;29;7321;-59
2022/04/22 05:40:16;;;;;;;;;;;;;;;25.17;33.22;92630.78;4928849;29;9147;-59
2022/04/22 05:42:46;;;;;;;;;;;;;;;25.17;33.22;92630.03;4908676;29;9418;-60
2022/04/22 05:45:22;;;;;;;;;;;;;;;25.15;32.39;92627.84;4929694;29;8915;-59
2022/04/22 05:47:53;;;;;;;;;;;;;;;25.10;32.32;92633.53;4908699;29;7626;-59
2022/04/22 05:50:21;;;;;;;;;;;;;;;25.06;32.33;92625.63;4951376;28;7202;-60
2022/04/22 05:52:48;;;;;;;;;;;;;;;25.07;32.16;92629.13;4984323;28;7356;-60
2022/04/22 05:55:17;;;;;;;;;;;;;;;25.09;32.88;92626.56;4967550;28;9479;-60
2022/04/22 05:57:50;;;;;;;;;;;;;;;25.11;32.67;92627.47;4987118;28;7944;-61
2022/04/22 06:00:20;;;;;;;;;;;;;;;25.12;31.91;92623.44;4982624;28;7996;-60
2022/04/22 06:03:15;;;;;;;;;;;;;;;25.15;32.66;92635.34;5009488;28;6989;-61
2022/04/22 06:05:41;;;;;;;;;;;;;;;25.16;32.22;92632.06;4948789;28;9138;-59
2022/04/22 06:11:34;;;;;;;;;;;;;;;25.18;32.13;92628.75;4966189;28;9088;-60
2022/04/22 06:14:00;;;;;;;;;;;;;;;25.19;31.67;92624.72;4918771;29;7271;-60
2022/04/22 06:16:35;;;;;;;;;;;;;;;25.20;31.48;92628.94;4900719;29;9132;-61
2022/04/22 06:19:12;;;;;;;;;;;;;;;25.21;32.23;92622.13;4940770;28;7611;-61
2022/04/22 06:21:39;;;;;;;;;;;;;;;25.22;31.70;92616.09;4907198;29;7267;-60
2022/04/22 06:24:06;;;;;;;;;;;;;;;25.24;32.47;92621.06;4912492;29;9664;-61
2022/04/22 06:26:42;;;;;;;;;;;;;;;25.26;32.78;92621.22;4916008;28;6969;-60
2022/04/22 06:29:27;;;;;;;;;;;;;;;25.27;32.36;92617.94;4914480;28;9175;-60
2022/04/22 06:32:09;;;;;;;;;;;;;;;25.27;32.75;92622.72;4918958;29;9436;-59
2022/04/22 06:34:35;;;;;;;;;;;;;;;25.28;33.09;92621.41;4900117;29;6985;-60
2022/04/22 06:37:02;;;;;;;;;;;;;;;25.29;33.30;92620.16;4945900;28;7333;-60
2022/04/22 06:45:46;;;;;;;;;;;;;;;25.31;32.44;92623.06;4938326;28;7254;-60
2022/04/22 06:47:54;;;;;;;;;;;;;;;25.47;32.74;92610.06;4978005;28;7208;-61
2022/04/22 06:50:20;;;;;;;;;;;;;;;25.53;32.18;92614.09;5023715;28;9021;-61
2022/04/22 06:52:46;;;;;;;;;;;;;;;25.59;32.38;92609.13;5038940;28;7470;-60
2022/04/22 06:55:17;;;;;;;;;;;;;;;25.63;32.70;92614.25;5049030;28;7786;-61
2022/04/22 06:57:49;;;;;;;;;;;;;;;25.70;31.96;92616.25;5056202;28;7122;-61
2022/04/22 07:00:19;;;;;;;;;;;;;;;25.75;32.56;92616.06;5047981;28;9136;-61
2022/04/22 07:02:46;;;;;;;;;;;;;;;25.79;31.98;92621.94;5054321;28;6863;-60
2022/04/22 07:05:21;;;;;;;;;;;;;;;25.85;32.46;92621.75;5044040;28;9119;-60
2022/04/22 07:08:20;;;;;;;;;;;;;;;25.88;32.00;92618.59;5040919;28;9080;-61
2022/04/22 07:10:52;;;;;;;;;;;;;;;25.91;32.43;92619.50;4952735;28;7339;-60
2022/04/22 07:13:37;;;;;;;;;;;;;;;25.95;32.06;92620.59;4949116;28;7058;-61
2022/04/22 07:16:16;;;;;;;;;;;;;;;26.00;32.16;92616.94;4963430;28;7124;-61
2022/04/22 07:18:42;;;;;;;;;;;;;;;26.04;31.94;92614.53;4952430;28;7806;-61
2022/04/22 07:21:12;;;;;;;;;;;;;;;26.07;32.71;92612.69;4945435;28;7255;-61
2022/04/22 07:23:40;;;;;;;;;;;;;;;26.10;31.98;92608.81;4938980;28;7175;-61
2022/04/22 07:26:09;;;;;;;;;;;;;;;26.12;31.97;92606.97;4948092;28;8986;-61
2022/04/22 07:28:47;;;;;;;;;;;;;;;26.17;31.84;92608.81;4944032;28;9066;-60
2022/04/22 07:31:33;;;;;;;;;;;;;;;26.18;32.26;92606.78;4946767;28;7064;-61
2022/04/22 07:33:59;;;;;;;;;;;;;;;26.19;31.69;92605.50;4941914;28;9383;-61
2022/04/22 07:36:28;;;;;;;;;;;;;;;26.23;32.48;92602.38;4956319;28;7211;-61
2022/04/22 07:38:55;;;;;;;;;;;;;;;26.24;32.28;92606.56;4939194;28;9094;-61
2022/04/22 07:41:27;;;;;;;;;;;;;;;26.27;32.19;92608.22;4946007;28;7232;-61
2022/04/22 07:46:47;;;;;;;;;;;;;;;26.31;31.90;92608.56;4998361;28;9149;-61
2022/04/22 07:49:14;;;;;;;;;;;;;;;26.32;31.91;92615.56;5033303;28;9124;-60
2022/04/22 07:51:42;;;;;;;;;;;;;;;26.33;32.01;92606.72;5032394;28;7962;-61
2022/04/22 07:54:08;;;;;;;;;;;;;;;26.35;31.62;92606.16;5039939;28;8393;-61
2022/04/22 07:56:37;;;;;;;;;;;;;;;26.35;32.36;92609.66;5035699;28;9178;-60
2022/04/22 07:59:03;;;;;;;;;;;;;;;26.37;32.40;92611.84;5038183;28;8931;-60
2022/04/22 08:01:30;;;;;;;;;;;;;;;26.38;31.37;92610.56;5043586;28;8387;-60
2022/04/22 08:04:34;;;;;;;;;;;;;;;26.38;31.67;92613.31;5040420;28;7247;-60
2022/04/22 08:07:10;;;;;;;;;;;;;;;26.38;31.62;92610.56;4979145;28;6997;-61
2022/04/22 08:09:36;;;;;;;;;;;;;;;26.36;32.36;92608.34;4966804;28;7413;-60
2022/04/22 08:12:02;;;;;;;;;;;;;;;26.36;31.52;92604.88;4986072;28;7260;-60
2022/04/22 08:14:28;;;;;;;;;;;;;;;26.34;32.31;92602.66;4979308;28;6927;-60
2022/04/22 08:16:55;;;;;;;;;;;;;;;26.34;32.11;92599.91;4968831;28;7223;-61
2022/04/22 08:19:23;;;;;;;;;;;;;;;26.34;31.73;92607.47;4986171;28;7321;-61
2022/04/22 08:21:51;;;;;;;;;;;;;;;26.33;32.00;92609.50;4972107;28;9183;-61
2022/04/22 08:24:22;;;;;;;;;;;;;;;26.33;32.11;92611.50;4970327;28;7225;-61
2022/04/22 08:27:08;;;;;;;;;;;;;;;26.32;31.73;92610.06;4985453;28;8916;-61
2022/04/22 08:29:34;;;;;;;;;;;;;;;26.31;32.36;92612.06;4980005;28;7064;-61
2022/04/22 08:32:07;;;;;;;;;;;;;;;26.28;32.10;92604.16;4967642;28;7544;-61
2022/04/22 08:34:33;;;;;;;;;;;;;;;26.26;32.08;92610.25;4971825;28;9083;-61
2022/04/22 08:36:59;;;;;;;;;;;;;;;26.25;32.38;92611.56;4985697;28;9093;-61
2022/04/22 08:39:27;;;;;;;;;;;;;;;26.24;31.97;92609.31;5033208;28;7115;-61
2022/04/22 08:41:56;;;;;;;;;;;;;;;26.24;32.46;92610.06;5031170;28;7320;-61
2022/04/22 08:44:23;;;;;;;;;;;;;;;26.24;32.04;92603.81;5034846;28;6931;-61
2022/04/22 08:52:26;;;;;;;;;;;;;;;26.20;32.75;92606.22;5029762;28;9344;-61
2022/04/22 08:54:54;;;;;;;;;;;;;;;26.19;32.48;92602.72;5034122;28;7157;-61
2022/04/22 08:57:23;;;;;;;;;;;;;;;26.15;32.68;92596.88;5048198;28;7191;-61
2022/04/22 09:00:07;;;;;;;;;;;;;;;26.19;33.04;92604.78;5044548;28;9227;-61
2022/04/22 09:02:39;;;;;;;;;;;;;;;26.16;32.34;92610.09;5048877;28;9230;-62
2022/04/22 09:05:08;;;;;;;;;;;;;;;26.15;32.51;92603.13;5055035;28;7247;-61
2022/04/22 09:07:43;;;;;;;;;;;;;;;26.13;32.48;92605.72;5040824;28;7274;-61
2022/04/22 09:10:15;;;;;;;;;;;;;;;26.12;33.04;92606.97;5045687;28;9249;-61
2022/04/22 09:12:57;;;;;;;;;;;;;;;26.12;32.87;92606.28;5041177;28;7269;-61
2022/04/22 09:15:34;;;;;;;;;;;;;;;26.10;33.36;92606.06;5057695;28;9060;-62
2022/04/22 09:18:26;;;;;;;;;;;;;;;26.10;32.66;92614.34;5039504;28;8325;-62
2022/04/22 09:20:58;;;;;;;;;;;;;;;26.10;33.44;92612.31;5049303;28;9031;-61
2022/04/22 09:23:37;;;;;;;;;;;;;;;26.07;33.21;92610.66;5055835;28;7338;-61
2022/04/22 09:26:27;;;;;;;;;;;;;;;26.07;32.76;92613.41;5040123;28;7238;-61
2022/04/22 09:28:59;;;;;;;;;;;;;;;26.05;33.22;92604.97;5042746;28;9063;-62
2022/04/22 09:31:29;;;;;;;;;;;;;;;26.04;33.21;92611.78;5061812;28;7314;-61
2022/04/22 09:33:57;;;;;;;;;;;;;;;26.04;32.87;92609.00;5053969;28;9867;-61
2022/04/22 09:42:43;;;;;;;;;;;;;;;26.02;32.85;92614.34;5041290;28;8688;-61
2022/04/22 09:45:19;;;;;;;;;;;;;;;26.02;33.74;92606.09;5044806;28;7044;-61
2022/04/22 09:47:59;;;;;;;;;;;;;;;26.00;33.17;92597.66;5036286;28;8763;-61
2022/04/22 09:50:40;;;;;;;;;;;;;;;26.01;32.59;92604.59;5039744;28;9046;-60
2022/04/22 09:53:10;;;;;;;;;;;;;;;26.01;33.37;92603.88;5042038;28;7259;-61
2022/04/22 09:55:54;;;;;;;;;;;;;;;26.00;32.28;92602.41;5039842;28;8970;-61
2022/04/22 09:58:31;;;;;;;;;;;;;;;25.99;33.18;92600.97;5045126;28;9023;-61
2022/04/22 10:01:06;;;;;;;;;;;;;;;25.97;32.92;92598.75;5040144;28;7233;-61
2022/04/22 10:03:40;;;;;;;;;;;;;;;26.01;33.29;92601.13;5051027;28;8640;-62
2022/04/22 10:06:18;;;;;;;;;;;;;;;25.99;33.65;92596.16;5054393;28;9099;-62
2022/04/22 10:08:56;;;;;;;;;;;;;;;25.99;34.05;92601.66;5045015;28;8917;-62
2022/04/22 10:11:29;;;;;;;;;;;;;;;25.98;34.32;92597.47;5037441;28;7054;-61
2022/04/22 10:14:11;;;;;;;;;;;;;;;26.00;34.55;92596.91;5039758;28;9132;-61
2022/04/22 10:16:38;;;;;;;;;;;;;;;26.00;34.77;92596.91;5037454;28;7252;-61
2022/04/22 10:19:12;;;;;;;;;;;;;;;25.99;35.29;92593.41;5049046;28;7498;-61
2022/04/22 10:21:46;;;;;;;;;;;;;;;26.00;34.79;92585.88;5041776;28;7269;-61
2022/04/22 10:24:14;;;;;;;;;;;;;;;25.99;35.16;92590.66;5039917;28;8755;-61
2022/04/22 10:26:56;;;;;;;;;;;;;;;26.01;34.86;92584.59;5036982;28;8670;-61
2022/04/22 10:29:22;;;;;;;;;;;;;;;26.01;34.50;92588.06;5039560;28;7832;-61
2022/04/22 10:32:05;;;;;;;;;;;;;;;26.01;35.15;92590.81;5040762;28;7871;-61
2022/04/22 10:34:39;;;;;;;;;;;;;;;26.00;34.75;92589.38;5054479;28;9482;-62
2022/04/22 10:37:15;;;;;;;;;;;;;;;26.03;35.04;92595.81;5048902;28;7318;-61
2022/04/22 10:39:41;;;;;;;;;;;;;;;26.01;35.22;92590.81;5026301;28;9734;-61
2022/04/22 10:42:14;;;;;;;;;;;;;;;26.03;34.69;92593.75;5041492;28;7239;-61
2022/04/22 10:47:44;;;;;;;;;;;;;;;26.03;34.53;92585.50;5038713;28;7163;-61
2022/04/22 10:50:33;;;;;;;;;;;;;;;26.02;34.56;92589.56;5040542;28;7412;-61
2022/04/22 10:53:07;;;;;;;;;;;;;;;26.04;35.23;92586.22;5055788;28;7229;-61
2022/04/22 10:55:36;;;;;;;;;;;;;;;26.02;35.14;92577.78;5044259;28;7253;-61
2022/04/22 10:58:24;;;;;;;;;;;;;;;26.03;35.37;92582.03;5049359;28;9400;-61
2022/04/22 11:00:58;;;;;;;;;;;;;;;26.02;35.20;92577.78;5042634;28;9255;-61
2022/04/22 11:03:35;;;;;;;;;;;;;;;26.02;34.69;92584.03;5040499;28;9085;-61
2022/04/22 11:06:05;;;;;;;;;;;;;;;26.03;34.36;92585.50;5040741;28;8785;-60
2022/04/22 11:08:38;;;;;;;;;;;;;;;26.03;34.84;92577.22;5044688;28;7473;-60
2022/04/22 11:11:41;;;;;;;;;;;;;;;26.03;34.35;92579.97;5047401;28;7457;-60
2022/04/22 11:14:32;;;;;;;;;;;;;;;26.03;34.69;92579.28;4975412;28;7219;-60
2022/04/22 11:17:37;;;;;;;;;;;;;;;26.02;35.22;92580.56;4965488;28;7652;-60
2022/04/22 11:20:05;;;;;;;;;;;;;;;26.02;34.99;92575.03;4987714;28;9391;-60
2022/04/22 11:22:54;;;;;;;;;;;;;;;26.05;34.57;92580.19;4961199;28;7156;-60
2022/04/22 11:25:29;;;;;;;;;;;;;;;26.04;34.64;92580.72;4968329;28;8729;-60
2022/04/22 11:28:00;;;;;;;;;;;;;;;26.03;34.43;92579.28;4985498;28;9478;-60
2022/04/22 11:30:40;;;;;;;;;;;;;;;26.04;34.98;92580.72;4980183;28;8883;-60
2022/04/22 11:33:26;;;;;;;;;;;;;;;26.04;35.37;92586.22;4970725;28;9086;-61
2022/04/22 11:36:04;;;;;;;;;;;;;;;26.04;34.72;92580.72;4965971;28;7213;-60
2022/04/22 11:38:55;;;;;;;;;;;;;;;26.02;34.88;92573.03;4959489;28;6998;-60
2022/04/22 11:41:22;;;;;;;;;;;;;;;26.03;34.76;92573.75;4972798;28;8690;-60
2022/04/22 11:43:49;;;;;;;;;;;;;;;26.01;35.46;92577.06;4982903;28;6996;-61
2022/04/22 11:46:18;;;;;;;;;;;;;;;26.03;35.46;92576.53;4963731;28;9472;-60
2022/04/22 11:48:54;;;;;;;;;;;;;;;26.05;34.92;92580.19;4980878;28;9102;-60
2022/04/22 11:51:20;;;;;;;;;;;;;;;26.07;34.46;92576.88;5024052;28;9143;-60
2022/04/22 11:53:52;;;;;;;;;;;;;;;26.10;35.12;92576.50;5032212;28;7213;-60
2022/04/22 11:56:27;;;;;;;;;;;;;;;26.14;34.75;92582.34;5046539;28;8962;-60
2022/04/22 11:58:56;;;;;;;;;;;;;;;26.12;34.27;92570.44;5051539;28;8396;-60
2022/04/22 12:10:05;;;;;;;;;;;;;;;25.88;29.68;92568.31;5039792;28;9024;-60
2022/04/22 12:12:35;;;;;;;;;;;;;;;25.93;30.41;92570.09;5047385;28;7233;-60
2022/04/22 12:15:27;;;;;;;;;;;;;;;25.94;30.48;92577.84;5046443;28;9562;-60
2022/04/22 12:17:54;;;;;;;;;;;;;;;25.99;30.45;92578.94;4945661;28;9555;-60
2022/04/22 12:20:20;;;;;;;;;;;;;;;26.02;30.43;92578.53;4943832;28;9614;-60
2022/04/22 12:22:51;;;;;;;;;;;;;;;26.04;30.92;92572.47;4961102;28;7825;-61
2022/04/22 12:25:20;;;;;;;;;;;;;;;26.05;30.96;92571.19;4945029;28;9323;-60
2022/04/22 12:28:08;;;;;;;;;;;;;;;26.09;31.11;92572.28;4939236;28;7086;-60
2022/04/22 12:30:40;;;;;;;;;;;;;;;26.11;31.33;92574.47;4939841;28;8576;-60
2022/04/22 12:33:15;;;;;;;;;;;;;;;26.12;30.55;92565.66;4940981;28;6963;-60
2022/04/22 12:35:42;;;;;;;;;;;;;;;26.12;30.88;92571.16;4944051;28;9098;-60
2022/04/22 12:38:23;;;;;;;;;;;;;;;26.14;31.08;92571.34;4950514;28;9198;-60
2022/04/22 12:40:50;;;;;;;;;;;;;;;26.15;31.18;92558.31;4968679;28;9093;-60
2022/04/22 12:43:31;;;;;;;;;;;;;;;26.18;31.47;92568.22;4972106;28;9136;-60
2022/04/22 12:52:24;;;;;;;;;;;;;;;26.15;29.80;92556.28;4913921;29;9067;-60
2022/04/22 12:55:02;;;;;;;;;;;;;;;26.15;30.29;92569.31;4929625;28;7277;-60
2022/04/22 12:57:41;;;;;;;;;;;;;;;26.14;30.70;92576.84;4964025;28;7413;-60
2022/04/22 13:00:20;;;;;;;;;;;;;;;26.13;30.63;92567.13;4959106;28;7361;-60
2022/04/22 13:02:46;;;;;;;;;;;;;;;26.15;30.55;92566.56;4969071;28;7389;-60
2022/04/22 13:05:23;;;;;;;;;;;;;;;26.15;30.70;92559.03;4967033;28;6980;-60
2022/04/22 13:07:51;;;;;;;;;;;;;;;26.17;31.00;92567.47;4964312;28;7288;-60
2022/04/22 13:10:26;;;;;;;;;;;;;;;26.16;31.06;92559.78;4964292;28;7654;-60
2022/04/22 13:13:03;;;;;;;;;;;;;;;26.15;30.44;92559.03;4964261;28;8764;-61
2022/04/22 13:15:32;;;;;;;;;;;;;;;26.17;31.22;92570.22;4960347;28;9789;-60
2022/04/22 13:18:06;;;;;;;;;;;;;;;26.20;30.82;92560.13;4952392;28;7282;-61
2022/04/22 13:20:32;;;;;;;;;;;;;;;26.23;31.58;92561.75;5036856;28;7035;-60
2022/04/22 13:23:08;;;;;;;;;;;;;;;26.25;31.25;92563.97;5045699;28;7369;-60
2022/04/22 13:25:35;;;;;;;;;;;;;;;26.27;31.87;92558.63;5035692;28;7240;-60
2022/04/22 13:28:07;;;;;;;;;;;;;;;26.30;31.37;92563.72;5043948;28;7097;-60
2022/04/22 13:30:36;;;;;;;;;;;;;;;26.34;31.44;92560.59;5031624;28;9235;-60
2022/04/22 13:33:10;;;;;;;;;;;;;;;26.37;31.69;92556.72;5032291;28;9221;-61
2022/04/22 13:35:38;;;;;;;;;;;;;;;26.40;31.59;92558.38;5034307;28;7000;-61
2022/04/22 13:38:06;;;;;;;;;;;;;;;26.40;31.75;92555.59;5041817;28;9054;-60
2022/04/22 13:40:32;;;;;;;;;;;;;;;26.45;31.93;92551.88;5029997;28;9484;-60
2022/04/22 13:42:58;;;;;;;;;;;;;;;26.46;31.56;92551.34;5028706;28;7121;-60
2022/04/22 13:53:42;;;;;;;;;;;;;;;26.50;32.11;92548.94;5042729;28;9100;-60
2022/04/22 13:56:08;;;;;;;;;;;;;;;26.52;31.50;92546.34;5058290;28;7030;-61
2022/04/22 13:58:39;;;;;;;;;;;;;;;26.54;31.66;92548.53;5057190;28;8541;-61
2022/04/22 14:01:05;;;;;;;;;;;;;;;26.55;31.53;92548.00;5049043;28;6985;-60
2022/04/22 14:03:40;;;;;;;;;;;;;;;26.56;32.03;92537.66;5039871;28;7264;-60
2022/04/22 14:06:08;;;;;;;;;;;;;;;26.58;32.27;92551.63;5047989;28;6939;-60
2022/04/22 14:09:10;;;;;;;;;;;;;;;26.60;32.44;92546.31;5052118;28;7547;-60
2022/04/22 14:11:38;;;;;;;;;;;;;;;26.63;31.21;92547.94;5008087;28;9774;-60
2022/04/22 14:14:04;;;;;;;;;;;;;;;26.65;31.35;92545.34;5000623;28;7240;-60
2022/04/22 14:16:41;;;;;;;;;;;;;;;26.66;31.40;92544.06;5003995;28;7275;-60
2022/04/22 14:19:29;;;;;;;;;;;;;;;26.64;31.46;92544.59;5010546;28;7212;-60
2022/04/22 14:21:59;;;;;;;;;;;;;;;26.64;32.46;92546.66;5006431;28;9233;-60
2022/04/22 14:24:35;;;;;;;;;;;;;;;26.63;32.19;92547.94;5025860;28;9052;-60
2022/04/22 14:27:05;;;;;;;;;;;;;;;26.63;32.49;92556.19;5008125;28;7258;-60
2022/04/22 14:29:33;;;;;;;;;;;;;;;26.67;32.04;92556.53;5024590;28;7911;-61
2022/04/22 14:32:09;;;;;;;;;;;;;;;26.67;31.55;92548.25;5006529;28;7266;-61
2022/04/22 14:34:37;;;;;;;;;;;;;;;26.67;31.57;92543.47;5003283;28;9136;-61
2022/04/22 14:37:10;;;;;;;;;;;;;;;26.71;31.78;92548.59;5023102;28;9189;-60
2022/04/22 14:39:45;;;;;;;;;;;;;;;26.74;31.90;92559.28;5007107;28;7066;-61
2022/04/22 14:42:12;;;;;;;;;;;;;;;26.74;31.53;92556.53;5003902;28;7282;-60
2022/04/22 14:44:40;;;;;;;;;;;;;;;26.77;32.44;92560.91;5007405;28;9081;-60
2022/04/22 14:47:10;;;;;;;;;;;;;;;26.76;32.04;92547.69;5021915;28;9115;-60
2022/04/22 14:49:38;;;;;;;;;;;;;;;26.78;31.68;92553.38;5047780;28;7979;-60
2022/04/22 14:52:05;;;;;;;;;;;;;;;26.78;32.32;92554.09;5035532;28;7058;-60